createdAt,value
2019-04-10T00:00:44.306Z,19.70
2019-04-10T00:03:25.810Z,19.57
2019-04-10T00:05:46.246Z,18.93
2019-04-10T00:08:15.526Z,18.40
2019-04-10T00:10:45.818Z,19.87
2019-04-10T00:13:15.277Z,19.43
2019-04-10T00:15:45.266Z,18.50
2019-04-10T00:18:15.826Z,19.43
2019-04-10T00:20:45.164Z,18.47
2019-04-10T00:23:15.221Z,20.50
2019-04-10T00:25:45.506Z,18.30
2019-04-10T00:28:15.320Z,19.53
2019-04-10T00:30:45.124Z,19.40
2019-04-10T00:33:14.472Z,19.63
2019-04-10T00:35:43.850Z,20.47
2019-04-10T00:38:13.674Z,19.83
2019-04-10T00:40:43.737Z,19.93
2019-04-10T00:43:14.840Z,20.17
2019-04-10T00:45:44.465Z,20.43
2019-04-10T00:48:13.724Z,20.23
2019-04-10T00:50:44.475Z,21.50
2019-04-10T00:53:14.202Z,21.30
2019-04-10T00:55:44.043Z,20.20
2019-04-10T00:58:14.187Z,21.27
2019-04-10T01:00:43.556Z,21.27
2019-04-10T01:03:15.711Z,21.17
2019-04-10T01:05:44.963Z,22.73
2019-04-10T01:08:14.146Z,23.13
2019-04-10T01:10:44.654Z,23.10
2019-04-10T01:13:13.818Z,23.53
2019-04-10T01:15:43.434Z,24.10
2019-04-10T01:18:13.107Z,25.90
2019-04-10T01:20:42.355Z,26.23
2019-04-10T01:23:11.967Z,25.10
2019-04-10T01:25:41.301Z,24.90
2019-04-10T01:28:10.846Z,26.30
2019-04-10T01:30:40.319Z,26.60
2019-04-10T01:33:09.564Z,26.50
2019-04-10T01:35:38.812Z,26.97
2019-04-10T01:38:09.187Z,27.20
2019-04-10T01:40:39.357Z,27.47
2019-04-10T01:43:13.288Z,28.17
2019-04-10T01:45:39.939Z,28.13
2019-04-10T01:48:10.041Z,27.67
2019-04-10T01:50:39.265Z,27.23
2019-04-10T01:53:09.159Z,29.07
2019-04-10T01:55:38.846Z,28.90
2019-04-10T01:58:13.452Z,28.60
2019-04-10T02:00:48.225Z,28.73
2019-04-10T02:03:18.087Z,27.47
2019-04-10T02:05:49.110Z,28.83
2019-04-10T02:08:19.036Z,28.70
2019-04-10T02:10:49.936Z,28.50
2019-04-10T02:13:19.772Z,29.77
2019-04-10T02:15:49.010Z,29.03
2019-04-10T02:18:19.102Z,29.47
2019-04-10T02:20:49.418Z,30.07
2019-04-10T02:23:19.367Z,29.73
2019-04-10T02:25:49.459Z,29.60
2019-04-10T02:28:19.050Z,30.70
2019-04-10T02:30:49.991Z,28.10
2019-04-10T02:33:19.763Z,30.30
2019-04-10T02:35:49.293Z,29.70
2019-04-10T02:38:37.331Z,27.60
2019-04-10T02:40:50.121Z,27.80
2019-04-10T02:43:21.062Z,29.30
2019-04-10T02:45:51.269Z,26.77
2019-04-10T02:48:20.527Z,26.90
2019-04-10T02:50:51.223Z,27.90
2019-04-10T02:53:21.625Z,26.23
2019-04-10T02:55:53.421Z,27.80
2019-04-10T02:58:24.681Z,27.13
2019-04-10T03:00:56.195Z,26.80
2019-04-10T03:03:25.614Z,27.97
2019-04-10T03:05:56.463Z,27.70
2019-04-10T03:08:41.336Z,26.60
2019-04-10T03:11:03.584Z,27.57
2019-04-10T03:13:29.338Z,28.00
2019-04-10T03:16:00.047Z,26.53
2019-04-10T03:18:30.547Z,27.37
2019-04-10T03:20:59.740Z,25.73
2019-04-10T03:23:29.457Z,25.47
2019-04-10T03:25:59.457Z,24.67
2019-04-10T03:28:29.967Z,25.20
2019-04-10T03:31:01.113Z,25.50
2019-04-10T03:33:52.251Z,25.70
2019-04-10T03:36:21.164Z,26.83
2019-04-10T03:38:59.214Z,25.60
2019-04-10T03:41:22.016Z,25.63
2019-04-10T03:43:52.225Z,26.57
2019-04-10T03:46:21.855Z,25.77
2019-04-10T03:48:51.526Z,26.03
2019-04-10T03:51:22.756Z,26.57
2019-04-10T03:53:52.100Z,24.77
2019-04-10T03:56:21.628Z,23.47
2019-04-10T03:58:51.730Z,24.57
2019-04-10T04:01:20.981Z,24.83
2019-04-10T04:03:51.120Z,23.90
2019-04-10T04:06:21.700Z,22.70
2019-04-10T04:09:03.534Z,23.77
2019-04-10T04:11:23.868Z,23.90
2019-04-10T04:13:53.886Z,25.70
2019-04-10T04:16:23.101Z,23.90
2019-04-10T04:18:53.377Z,24.10
2019-04-10T04:21:23.757Z,23.60
2019-04-10T04:23:53.344Z,23.77
2019-04-10T04:26:23.182Z,23.03
2019-04-10T04:28:53.744Z,23.83
2019-04-10T04:31:23.404Z,23.47
2019-04-10T04:33:55.932Z,24.47
2019-04-10T04:36:25.157Z,23.40
2019-04-10T04:38:54.407Z,23.53
2019-04-10T04:41:23.849Z,22.83
2019-04-10T04:43:53.327Z,24.47
2019-04-10T04:46:22.651Z,24.43
2019-04-10T04:48:52.283Z,23.00
2019-04-10T04:51:22.005Z,24.63
2019-04-10T04:53:52.363Z,25.87
2019-04-10T04:56:22.046Z,26.27
2019-04-10T04:58:51.800Z,25.83
2019-04-10T05:01:21.496Z,26.00
2019-04-10T05:03:50.686Z,25.57
2019-04-10T05:06:20.145Z,26.30
2019-04-10T05:08:50.599Z,26.60
2019-04-10T05:11:20.592Z,26.00
2019-04-10T05:13:50.996Z,25.80
2019-04-10T05:16:20.649Z,27.77
2019-04-10T05:18:50.288Z,25.63
2019-04-10T05:21:20.998Z,28.43
2019-04-10T05:23:51.258Z,27.50
2019-04-10T05:26:21.414Z,26.63
2019-04-10T05:28:51.321Z,26.50
2019-04-10T05:31:21.410Z,25.60
2019-04-10T05:33:51.348Z,26.30
2019-04-10T05:36:21.617Z,25.77
2019-04-10T05:38:52.490Z,26.47
2019-04-10T05:41:23.258Z,25.63
2019-04-10T05:43:53.859Z,24.37
2019-04-10T05:46:25.008Z,25.27
2019-04-10T05:48:54.355Z,24.97
2019-04-10T05:51:23.586Z,24.53
2019-04-10T05:53:55.286Z,25.93
2019-04-10T05:56:24.333Z,25.70
2019-04-10T05:58:54.378Z,24.83
2019-04-10T06:01:32.347Z,25.27
2019-04-10T06:03:56.775Z,25.27
2019-04-10T06:06:26.625Z,25.80
2019-04-10T06:08:56.203Z,26.27
2019-04-10T06:11:25.814Z,24.30
2019-04-10T06:13:55.073Z,26.00
2019-04-10T06:16:24.243Z,24.70
2019-04-10T06:18:57.631Z,24.53
2019-04-10T06:21:27.290Z,22.90
2019-04-10T06:23:58.327Z,24.00
2019-04-10T06:26:28.045Z,23.77
2019-04-10T06:28:58.969Z,23.00
2019-04-10T06:31:28.862Z,23.47
2019-04-10T06:33:58.943Z,23.10
2019-04-10T06:36:29.146Z,22.70
2019-04-10T06:39:00.296Z,21.43
2019-04-10T06:41:30.522Z,22.00
2019-04-10T06:43:59.869Z,22.80
2019-04-10T06:46:30.680Z,22.57
2019-04-10T06:49:01.017Z,20.97
2019-04-10T06:51:31.348Z,20.57
2019-04-10T06:54:06.311Z,21.10
2019-04-10T06:56:31.695Z,19.87
2019-04-10T06:59:01.049Z,20.87
2019-04-10T07:01:40.412Z,20.83
2019-04-10T07:04:05.469Z,19.20
2019-04-10T07:06:47.519Z,18.87
2019-04-10T07:09:07.585Z,17.27
2019-04-10T07:11:37.219Z,17.77
2019-04-10T07:14:10.331Z,17.23
2019-04-10T07:16:38.251Z,17.23
2019-04-10T07:19:10.383Z,16.60
2019-04-10T07:21:38.765Z,16.10
2019-04-10T07:24:10.985Z,16.07
2019-04-10T07:26:43.273Z,16.77
2019-04-10T07:29:11.059Z,15.77
2019-04-10T07:31:40.806Z,15.40
2019-04-10T07:34:11.002Z,15.03
2019-04-10T07:36:42.373Z,15.57
2019-04-10T07:39:11.669Z,15.97
2019-04-10T07:41:41.797Z,14.93
2019-04-10T07:44:12.058Z,14.23
2019-04-10T07:46:42.368Z,14.40
2019-04-10T07:49:11.735Z,15.23
2019-04-10T07:51:42.492Z,13.57
2019-04-10T07:54:17.943Z,14.03
2019-04-10T07:56:43.847Z,13.57
2019-04-10T07:59:13.473Z,12.83
2019-04-10T08:01:43.728Z,13.17
2019-04-10T08:04:13.081Z,12.70
2019-04-10T08:06:42.470Z,12.13
2019-04-10T08:09:12.568Z,12.07
2019-04-10T08:11:42.853Z,11.27
2019-04-10T08:14:12.726Z,11.53
2019-04-10T08:16:42.027Z,11.67
2019-04-10T08:19:12.433Z,10.90
2019-04-10T08:21:42.368Z,10.40
2019-04-10T08:24:13.315Z,10.83
2019-04-10T08:26:43.193Z,10.80
2019-04-10T08:29:12.734Z,10.70
2019-04-10T08:31:41.918Z,10.33
2019-04-10T08:34:11.382Z,10.60
2019-04-10T08:36:40.618Z,9.90
2019-04-10T08:39:10.965Z,10.10
2019-04-10T08:41:40.333Z,9.77
2019-04-10T08:44:10.770Z,10.40
2019-04-10T08:46:41.947Z,10.20
2019-04-10T08:49:12.175Z,10.00
2019-04-10T08:51:42.009Z,10.20
2019-04-10T08:54:12.054Z,9.73
2019-04-10T08:56:42.792Z,9.73
2019-04-10T08:59:12.235Z,9.90
2019-04-10T09:01:41.901Z,9.53
2019-04-10T09:04:11.096Z,9.70
2019-04-10T09:06:40.515Z,9.80
2019-04-10T09:09:10.117Z,10.30
2019-04-10T09:11:39.657Z,10.07
2019-04-10T09:14:10.650Z,10.00
2019-04-10T09:16:40.160Z,9.43
2019-04-10T09:19:09.738Z,9.67
2019-04-10T09:21:39.077Z,9.00
2019-04-10T09:24:10.026Z,8.80
2019-04-10T09:26:40.302Z,9.53
2019-04-10T09:29:10.131Z,9.40
2019-04-10T09:31:40.025Z,9.20
2019-04-10T09:34:09.719Z,9.33
2019-04-10T09:36:39.629Z,9.37
2019-04-10T09:39:09.961Z,10.30
2019-04-10T09:41:39.897Z,9.90
2019-04-10T09:44:10.189Z,10.20
2019-04-10T09:46:40.824Z,11.43
2019-04-10T09:49:10.249Z,11.50
2019-04-10T09:51:40.463Z,10.43
2019-04-10T09:54:09.947Z,10.77
2019-04-10T09:56:39.971Z,10.70
2019-04-10T09:59:09.776Z,11.63
2019-04-10T10:01:42.264Z,11.57
2019-04-10T10:04:13.277Z,10.77
2019-04-10T10:06:43.256Z,10.80
2019-04-10T10:09:13.286Z,10.73
2019-04-10T10:11:42.806Z,10.60
2019-04-10T10:14:12.561Z,11.00
2019-04-10T10:16:42.761Z,10.60
2019-04-10T10:19:12.483Z,11.13
2019-04-10T10:21:42.810Z,10.60
2019-04-10T10:24:12.347Z,10.57
2019-04-10T10:26:44.206Z,10.90
2019-04-10T10:29:13.359Z,10.63
2019-04-10T10:31:43.004Z,11.17
2019-04-10T10:34:12.384Z,11.43
2019-04-10T10:36:45.891Z,11.30
2019-04-10T10:39:19.388Z,11.27
2019-04-10T10:41:49.504Z,11.17
2019-04-10T10:44:18.745Z,11.70
2019-04-10T10:46:49.497Z,10.87
2019-04-10T10:49:20.148Z,11.47
2019-04-10T10:51:51.027Z,11.27
2019-04-10T10:54:21.106Z,11.67
2019-04-10T10:56:50.880Z,11.80
2019-04-10T10:59:21.818Z,11.67
2019-04-10T11:01:52.109Z,11.30
2019-04-10T11:04:21.772Z,12.50
2019-04-10T11:06:57.766Z,11.83
2019-04-10T11:09:22.310Z,12.53
2019-04-10T11:11:51.586Z,11.90
2019-04-10T11:14:21.486Z,12.37
2019-04-10T11:16:51.630Z,12.83
2019-04-10T11:19:21.670Z,11.70
2019-04-10T11:21:51.160Z,12.27
2019-04-10T11:24:20.386Z,11.93
2019-04-10T11:26:50.386Z,11.53
2019-04-10T11:29:21.959Z,12.43
2019-04-10T11:31:53.627Z,11.60
2019-04-10T11:34:24.217Z,11.57
2019-04-10T11:37:12.954Z,12.23
2019-04-10T11:39:28.255Z,11.70
2019-04-10T11:41:57.642Z,11.40
2019-04-10T11:44:27.614Z,12.50
2019-04-10T11:46:58.767Z,12.77
2019-04-10T11:49:29.484Z,12.57
2019-04-10T11:52:01.438Z,12.63
2019-04-10T11:54:34.372Z,11.47
2019-04-10T11:57:04.288Z,10.90
2019-04-10T11:59:35.917Z,12.07
2019-04-10T12:02:06.487Z,11.43
2019-04-10T12:07:10.874Z,11.47
2019-04-10T12:12:09.109Z,11.30
2019-04-10T12:14:39.608Z,12.20
2019-04-10T12:17:09.653Z,12.23
2019-04-10T12:19:40.459Z,12.77
2019-04-10T12:22:11.608Z,11.67
2019-04-10T12:24:40.996Z,11.57
2019-04-10T12:27:10.187Z,11.20
2019-04-10T12:29:40.532Z,11.03
2019-04-10T12:32:09.732Z,10.93
2019-04-10T12:34:38.912Z,11.30
2019-04-10T12:37:09.076Z,10.97
2019-04-10T12:39:39.130Z,10.20
2019-04-10T12:42:08.493Z,10.33
2019-04-10T12:44:39.471Z,10.27
2019-04-10T12:47:09.955Z,10.60
2019-04-10T12:49:39.430Z,10.23
2019-04-10T12:52:10.085Z,11.13
2019-04-10T12:54:40.498Z,10.57
2019-04-10T12:57:10.598Z,10.27
2019-04-10T12:59:39.889Z,10.80
2019-04-10T13:02:10.874Z,10.60
2019-04-10T13:04:40.735Z,10.40
2019-04-10T13:07:09.936Z,10.73
2019-04-10T13:09:40.130Z,10.23
2019-04-10T13:12:09.552Z,10.63
2019-04-10T13:14:39.896Z,10.40
2019-04-10T13:17:09.651Z,10.40
2019-04-10T13:19:39.228Z,9.63
2019-04-10T13:22:09.551Z,9.70
2019-04-10T13:24:38.944Z,9.93
2019-04-10T13:27:08.409Z,10.50
2019-04-10T13:29:38.490Z,10.80
2019-04-10T13:32:08.178Z,10.07
2019-04-10T13:34:37.477Z,10.60
2019-04-10T13:37:06.756Z,10.47
2019-04-10T13:39:36.967Z,10.60
2019-04-10T13:42:07.252Z,10.53
2019-04-10T13:44:36.630Z,10.20
2019-04-10T13:47:07.100Z,11.07
2019-04-10T13:49:36.375Z,10.90
2019-04-10T13:52:05.840Z,10.73
2019-04-10T13:54:35.086Z,10.23
2019-04-10T13:57:05.647Z,11.30
2019-04-10T13:59:44.942Z,11.40
2019-04-10T14:02:21.510Z,11.67
2019-04-10T14:04:51.368Z,10.23
2019-04-10T14:07:22.115Z,11.27
2019-04-10T14:09:52.412Z,11.57
2019-04-10T14:12:22.825Z,12.30
2019-04-10T14:14:53.058Z,11.73
2019-04-10T14:17:23.676Z,11.80
2019-04-10T14:19:54.036Z,11.50
2019-04-10T14:22:23.923Z,12.10
2019-04-10T14:24:53.626Z,12.00
2019-04-10T14:27:24.930Z,11.67
2019-04-10T14:29:54.567Z,12.17
2019-04-10T14:32:31.388Z,12.23
2019-04-10T14:35:01.049Z,11.97
2019-04-10T14:37:31.669Z,11.97
2019-04-10T14:40:02.152Z,12.13
2019-04-10T14:42:31.459Z,11.57
2019-04-10T14:45:01.411Z,11.60
2019-04-10T14:47:31.812Z,11.47
2019-04-10T14:50:01.982Z,11.63
2019-04-10T14:52:31.377Z,11.47
2019-04-10T14:55:02.095Z,11.77
2019-04-10T14:57:32.835Z,12.00
2019-04-10T15:00:02.466Z,11.60
2019-04-10T15:02:32.782Z,11.70
2019-04-10T15:05:02.056Z,11.87
2019-04-10T15:07:31.824Z,11.37
2019-04-10T15:10:01.786Z,12.10
2019-04-10T15:12:32.197Z,11.07
2019-04-10T15:15:01.773Z,12.40
2019-04-10T15:17:32.802Z,12.03
2019-04-10T15:20:02.182Z,11.80
2019-04-10T15:22:31.770Z,11.90
2019-04-10T15:25:01.486Z,11.33
2019-04-10T15:27:31.974Z,12.63
2019-04-10T15:30:02.096Z,11.87
2019-04-10T15:32:31.794Z,11.10
2019-04-10T15:35:02.219Z,10.87
2019-04-10T15:37:31.993Z,10.73
2019-04-10T15:40:12.446Z,6.77
2019-04-10T15:42:34.108Z,7.40
2019-04-10T15:45:05.083Z,6.80
2019-04-10T15:47:35.290Z,7.50
2019-04-10T15:50:06.916Z,6.57
2019-04-10T15:52:37.480Z,6.10
2019-04-10T15:55:07.885Z,6.67
2019-04-10T15:57:47.682Z,6.50
2019-04-10T16:00:09.123Z,6.77
2019-04-10T16:02:38.508Z,7.97
2019-04-10T16:05:09.393Z,7.47
2019-04-10T16:07:38.757Z,7.23
2019-04-10T16:10:26.660Z,6.20
2019-04-10T16:12:57.579Z,6.00
2019-04-10T16:15:27.853Z,6.50
2019-04-10T16:18:11.379Z,6.30
2019-04-10T16:20:41.078Z,5.60
2019-04-10T16:23:28.662Z,5.70
2019-04-10T16:25:58.633Z,5.83
2019-04-10T16:28:29.052Z,5.83
2019-04-10T16:30:59.260Z,5.70
2019-04-10T16:33:29.430Z,5.77
2019-04-10T16:35:59.099Z,5.50
2019-04-10T16:38:30.979Z,5.83
2019-04-10T16:41:00.497Z,5.53
2019-04-10T16:43:30.606Z,5.40
2019-04-10T16:45:59.973Z,5.27
2019-04-10T16:48:29.550Z,5.03
2019-04-10T16:50:59.676Z,5.83
2019-04-10T16:53:29.945Z,5.30
2019-04-10T16:55:59.670Z,5.23
2019-04-10T16:58:28.987Z,5.10
2019-04-10T17:00:58.963Z,5.20
2019-04-10T17:03:29.651Z,5.33
2019-04-10T17:05:59.043Z,5.60
2019-04-10T17:08:28.559Z,4.83
2019-04-10T17:10:58.802Z,4.77
2019-04-10T17:13:28.788Z,5.13
2019-04-10T17:15:58.055Z,5.70
2019-04-10T17:18:27.492Z,5.10
2019-04-10T17:20:57.270Z,5.00
2019-04-10T17:23:27.051Z,5.47
2019-04-10T17:25:56.557Z,5.07
2019-04-10T17:28:26.625Z,4.77
2019-04-10T17:30:56.102Z,4.90
2019-04-10T17:33:26.709Z,4.63
2019-04-10T17:35:56.355Z,5.43
2019-04-10T17:38:26.631Z,4.13
2019-04-10T17:40:58.773Z,4.87
2019-04-10T17:43:28.666Z,5.37
2019-04-10T17:45:59.069Z,4.80
2019-04-10T17:48:30.377Z,4.57
2019-04-10T17:51:00.069Z,4.73
2019-04-10T17:53:29.579Z,4.80
2019-04-10T17:56:00.097Z,4.87
2019-04-10T17:58:29.651Z,5.13
2019-04-10T18:01:01.788Z,5.63
2019-04-10T18:03:42.848Z,5.10
2019-04-10T18:06:02.065Z,4.70
2019-04-10T18:08:32.657Z,4.93
2019-04-10T18:11:02.015Z,4.70
2019-04-10T18:13:31.185Z,4.80
2019-04-10T18:16:00.501Z,4.67
2019-04-10T18:18:29.744Z,4.80
2019-04-10T18:21:00.150Z,5.03
2019-04-10T18:23:29.775Z,3.97
2019-04-10T18:26:00.459Z,4.37
2019-04-10T18:28:32.243Z,4.63
2019-04-10T18:31:00.993Z,4.63
2019-04-10T18:33:30.880Z,4.60
2019-04-10T18:36:00.345Z,4.60
2019-04-10T18:38:30.047Z,5.23
2019-04-10T18:41:03.688Z,4.50
2019-04-10T18:43:30.444Z,5.37
2019-04-10T18:46:08.716Z,4.70
2019-04-10T18:48:30.657Z,5.10
2019-04-10T18:51:01.477Z,4.93
2019-04-10T18:53:30.962Z,4.80
2019-04-10T18:56:00.782Z,4.50
2019-04-10T18:58:38.075Z,4.30
2019-04-10T19:01:25.167Z,5.13
2019-04-10T19:04:14.043Z,4.83
2019-04-10T19:06:53.216Z,5.70
2019-04-10T19:09:28.069Z,6.00
2019-04-10T19:11:57.130Z,5.67
2019-04-10T19:14:26.352Z,5.77
2019-04-10T19:16:55.503Z,5.87
2019-04-10T19:19:25.981Z,5.60
2019-04-10T19:21:56.009Z,6.10
2019-04-10T19:24:28.043Z,5.50
2019-04-10T19:26:57.904Z,5.27
2019-04-10T19:29:27.633Z,5.80
2019-04-10T19:32:01.538Z,5.93
2019-04-10T19:34:31.682Z,6.57
2019-04-10T19:37:00.990Z,6.23
2019-04-10T19:39:31.969Z,6.47
2019-04-10T19:42:03.354Z,6.37
2019-04-10T19:44:32.600Z,6.53
2019-04-10T19:47:02.128Z,5.77
2019-04-10T19:49:31.434Z,5.90
2019-04-10T19:52:00.628Z,5.80
2019-04-10T19:54:30.402Z,5.93
2019-04-10T19:57:01.341Z,6.70
2019-04-10T19:59:31.587Z,5.93
2019-04-10T20:02:01.083Z,5.90
2019-04-10T20:04:30.927Z,6.30
2019-04-10T20:07:00.592Z,6.07
2019-04-10T20:09:30.552Z,5.77
2019-04-10T20:12:00.263Z,6.07
2019-04-10T20:14:30.590Z,6.83
2019-04-10T20:16:59.911Z,7.20
2019-04-10T20:19:29.363Z,6.37
2019-04-10T20:21:59.051Z,6.40
2019-04-10T20:24:29.170Z,6.00
2019-04-10T20:26:59.417Z,6.13
2019-04-10T20:29:29.053Z,6.13
2019-04-10T20:31:59.545Z,6.00
2019-04-10T20:34:29.567Z,5.67
2019-04-10T20:37:02.713Z,6.00
2019-04-10T20:39:31.630Z,5.87
2019-04-10T20:42:02.482Z,6.37
2019-04-10T20:44:32.623Z,5.73
2019-04-10T20:47:02.862Z,5.83
2019-04-10T20:49:32.704Z,5.67
2019-04-10T20:52:02.234Z,5.90
2019-04-10T20:54:32.870Z,5.63
2019-04-10T20:57:03.362Z,5.93
2019-04-10T20:59:33.453Z,5.67
2019-04-10T21:02:04.195Z,6.50
2019-04-10T21:04:33.833Z,6.87
2019-04-10T21:07:03.073Z,6.10
2019-04-10T21:09:32.317Z,6.50
2019-04-10T21:12:08.020Z,6.13
2019-04-10T21:14:33.683Z,6.20
2019-04-10T21:17:04.483Z,6.43
2019-04-10T21:19:33.973Z,5.97
2019-04-10T21:22:03.807Z,5.90
2019-04-10T21:24:33.642Z,6.10
2019-04-10T21:27:03.580Z,6.60
2019-04-10T21:29:54.831Z,6.13
2019-04-10T21:32:43.494Z,6.20
2019-04-10T21:35:15.890Z,6.10
2019-04-10T21:37:45.246Z,6.87
2019-04-10T21:40:14.886Z,6.30
2019-04-10T21:42:44.114Z,6.03
2019-04-10T21:45:13.850Z,6.17
2019-04-10T21:47:44.013Z,5.63
2019-04-10T21:50:15.066Z,5.90
2019-04-10T21:52:45.462Z,5.40
2019-04-10T21:55:15.119Z,5.67
2019-04-10T21:57:44.795Z,4.93
2019-04-10T22:00:17.118Z,5.13
2019-04-10T22:02:46.606Z,5.57
2019-04-10T22:05:16.725Z,4.77
2019-04-10T22:08:07.822Z,4.57
2019-04-10T22:10:44.062Z,5.17
2019-04-10T22:13:13.544Z,5.10
2019-04-10T22:15:45.164Z,5.20
2019-04-10T22:18:14.864Z,5.10
2019-04-10T22:20:44.628Z,4.93
2019-04-10T22:23:13.872Z,4.70
2019-04-10T22:25:43.847Z,5.90
2019-04-10T22:28:14.829Z,5.40
2019-04-10T22:30:44.156Z,5.30
2019-04-10T22:33:13.960Z,5.27
2019-04-10T22:35:44.298Z,5.50
2019-04-10T22:38:15.174Z,5.03
2019-04-10T22:40:44.526Z,5.60
2019-04-10T22:43:13.855Z,5.30
2019-04-10T22:45:44.376Z,5.50
2019-04-10T22:48:14.693Z,6.00
2019-04-10T22:50:45.036Z,6.10
2019-04-10T22:53:15.182Z,5.10
2019-04-10T22:55:44.504Z,5.13
2019-04-10T22:58:14.859Z,5.37
2019-04-10T23:00:44.366Z,5.27
2019-04-10T23:03:14.004Z,5.70
2019-04-10T23:05:43.160Z,5.87
2019-04-10T23:08:13.233Z,6.13
2019-04-10T23:10:43.486Z,6.07
2019-04-10T23:13:13.974Z,5.50
2019-04-10T23:15:43.978Z,5.93
2019-04-10T23:18:15.114Z,5.93
2019-04-10T23:20:44.350Z,5.27
2019-04-10T23:23:14.507Z,5.97
2019-04-10T23:25:44.725Z,6.47
2019-04-10T23:28:14.045Z,6.07
2019-04-10T23:30:43.957Z,6.33
2019-04-10T23:33:13.178Z,6.50
2019-04-10T23:35:43.370Z,7.00
2019-04-10T23:38:12.762Z,6.80
2019-04-10T23:40:42.998Z,6.30
2019-04-10T23:43:15.429Z,6.13
2019-04-10T23:45:44.006Z,6.63
2019-04-10T23:48:13.476Z,6.17
2019-04-10T23:50:42.972Z,6.23
2019-04-10T23:53:12.116Z,6.43
2019-04-10T23:55:41.952Z,7.13
2019-04-10T23:58:11.483Z,6.93
